Time;durP1;ratioP1;P1;durP2;ratioP2;P2;SDS_P1;SDS_P2;PMS_P1;PMS_P2;Temp;Humidity;BMP_temperature;BMP_pressure;BME280_temperature;BME280_humidity;BME280_pressure;Samples;Min_cycle;Max_cycle;Signal;HPM_P1;HPM_P2
2021/01/04 00:02:02;;;;;;;21.03;12.23;;;;;;;;;;4830668;29;20225;-79
2021/01/04 00:04:58;;;;;;;24.97;12.93;;;;;;;;;;4823772;29;20230;-79
2021/01/04 00:07:35;;;;;;;24.40;13.50;;;;;;;;;;4831267;29;20689;-80
2021/01/04 00:10:15;;;;;;;23.77;12.37;;;;;;;;;;4796231;29;20211;-79
2021/01/04 00:12:45;;;;;;;20.87;12.03;;;;;;;;;;4832176;29;20231;-79
2021/01/04 00:15:17;;;;;;;22.40;12.77;;;;;;;;;;4804278;29;20244;-80
2021/01/04 00:17:57;;;;;;;22.97;12.37;;;;;;;;;;4822884;29;20238;-80
2021/01/04 00:20:29;;;;;;;22.40;11.63;;;;;;;;;;4798712;29;20211;-80
2021/01/04 00:23:02;;;;;;;22.43;13.10;;;;;;;;;;4797524;29;20238;-79
2021/01/04 00:25:43;;;;;;;23.07;11.87;;;;;;;;;;4810801;29;20216;-79
2021/01/04 00:28:13;;;;;;;21.17;12.40;;;;;;;;;;4808406;29;20204;-79
2021/01/04 00:30:48;;;;;;;21.80;12.93;;;;;;;;;;4827929;29;20587;-79
2021/01/04 00:33:19;;;;;;;23.90;13.80;;;;;;;;;;4813169;29;20239;-80
2021/01/04 00:35:50;;;;;;;26.03;12.93;;;;;;;;;;4825286;29;20208;-79
2021/01/04 00:38:40;;;;;;;22.47;12.17;;;;;;;;;;4821280;29;20697;-80
2021/01/04 00:41:14;;;;;;;19.93;12.10;;;;;;;;;;4829282;29;20863;-80
2021/01/04 00:43:44;;;;;;;20.37;12.27;;;;;;;;;;4805297;29;20262;-80
2021/01/04 00:46:13;;;;;;;24.73;13.10;;;;;;;;;;4820652;29;20223;-79
2021/01/04 00:48:45;;;;;;;22.23;12.50;;;;;;;;;;4821532;29;20218;-80
2021/01/04 00:51:26;;;;;;;22.30;12.67;;;;;;;;;;4804853;29;20220;-79
2021/01/04 00:53:54;;;;;;;28.17;13.10;;;;;;;;;;4811333;29;20246;-79
2021/01/04 00:56:35;;;;;;;20.97;12.53;;;;;;;;;;4821721;29;20206;-79
2021/01/04 00:59:20;;;;;;;27.07;13.47;;;;;;;;;;4803807;29;20234;-80
2021/01/04 01:02:14;;;;;;;20.27;11.80;;;;;;;;;;4830722;29;20219;-79
2021/01/04 01:04:47;;;;;;;23.60;13.50;;;;;;;;;;4812302;29;20218;-79
2021/01/04 01:07:16;;;;;;;25.33;12.70;;;;;;;;;;4817237;29;20301;-79
2021/01/04 01:09:48;;;;;;;25.10;13.67;;;;;;;;;;4820311;29;20215;-80
2021/01/04 01:12:33;;;;;;;23.73;13.53;;;;;;;;;;4821682;29;20231;-80
2021/01/04 01:15:11;;;;;;;21.17;12.57;;;;;;;;;;4819825;29;20224;-79
2021/01/04 01:17:59;;;;;;;24.50;13.33;;;;;;;;;;4797666;29;20234;-79
2021/01/04 01:20:28;;;;;;;24.87;13.20;;;;;;;;;;4814212;29;20214;-79
2021/01/04 01:22:57;;;;;;;23.40;13.80;;;;;;;;;;4805839;29;20248;-79
2021/01/04 01:25:28;;;;;;;24.33;14.30;;;;;;;;;;4804950;29;20214;-79
2021/01/04 01:28:27;;;;;;;26.57;13.97;;;;;;;;;;4797975;29;20224;-79
2021/01/04 01:31:19;;;;;;;25.30;14.47;;;;;;;;;;4821041;29;20677;-79
2021/01/04 01:34:08;;;;;;;23.33;13.00;;;;;;;;;;4811644;29;20232;-80
2021/01/04 01:36:50;;;;;;;24.17;13.30;;;;;;;;;;4818918;29;20215;-80
2021/01/04 01:39:47;;;;;;;23.90;14.47;;;;;;;;;;4817564;29;20736;-80
2021/01/04 01:42:40;;;;;;;26.20;14.33;;;;;;;;;;4812123;29;20243;-80
2021/01/04 01:45:14;;;;;;;22.43;13.93;;;;;;;;;;4801416;29;20220;-79
2021/01/04 01:47:49;;;;;;;25.13;12.60;;;;;;;;;;4809930;29;20218;-80
2021/01/04 01:50:27;;;;;;;23.90;13.20;;;;;;;;;;4830116;29;20220;-80
2021/01/04 01:53:00;;;;;;;24.87;13.20;;;;;;;;;;4838312;29;20235;-80
2021/01/04 01:55:49;;;;;;;25.37;13.97;;;;;;;;;;4847974;29;20219;-79
2021/01/04 01:58:59;;;;;;;27.60;14.80;;;;;;;;;;4842770;29;20255;-80
2021/01/04 02:01:35;;;;;;;22.23;13.20;;;;;;;;;;4838876;29;20191;-79
2021/01/04 02:04:07;;;;;;;22.93;13.23;;;;;;;;;;4833541;29;20228;-79
2021/01/04 02:06:47;;;;;;;25.67;14.73;;;;;;;;;;4838567;29;20241;-79
2021/01/04 02:09:18;;;;;;;22.20;12.63;;;;;;;;;;4821396;29;20214;-79
2021/01/04 02:11:51;;;;;;;26.33;13.80;;;;;;;;;;4818872;29;20223;-79
2021/01/04 02:14:28;;;;;;;25.43;13.10;;;;;;;;;;4811901;29;20212;-80
2021/01/04 02:17:06;;;;;;;24.13;13.10;;;;;;;;;;4813130;29;20222;-79
2021/01/04 02:19:56;;;;;;;24.20;13.53;;;;;;;;;;4823429;29;20783;-80
2021/01/04 02:22:45;;;;;;;26.33;14.20;;;;;;;;;;4825047;29;20235;-79
2021/01/04 02:25:14;;;;;;;24.87;13.97;;;;;;;;;;4818224;29;20234;-79
2021/01/04 02:27:46;;;;;;;24.43;13.97;;;;;;;;;;4824623;29;20589;-80
2021/01/04 02:30:14;;;;;;;25.93;14.57;;;;;;;;;;4841308;29;20578;-79
2021/01/04 02:32:43;;;;;;;24.93;13.90;;;;;;;;;;4820752;29;20729;-79
2021/01/04 02:35:13;;;;;;;25.47;13.50;;;;;;;;;;4821852;29;20224;-79
2021/01/04 02:37:41;;;;;;;25.90;14.23;;;;;;;;;;4820169;29;20214;-79
2021/01/04 02:40:12;;;;;;;25.87;14.60;;;;;;;;;;4807842;29;20226;-80
2021/01/04 02:42:44;;;;;;;27.07;14.73;;;;;;;;;;4821060;29;20236;-79
2021/01/04 02:45:15;;;;;;;25.40;13.77;;;;;;;;;;4826401;29;20215;-80
2021/01/04 02:47:56;;;;;;;22.97;13.63;;;;;;;;;;4822995;29;20226;-80
2021/01/04 02:50:40;;;;;;;25.83;13.53;;;;;;;;;;4823027;29;20226;-80
2021/01/04 02:53:34;;;;;;;26.60;13.87;;;;;;;;;;4804227;29;20243;-80
2021/01/04 02:56:07;;;;;;;24.93;14.10;;;;;;;;;;4791427;29;20227;-79
2021/01/04 02:58:50;;;;;;;26.17;13.57;;;;;;;;;;4796585;29;20236;-79
2021/01/04 03:01:20;;;;;;;23.57;12.47;;;;;;;;;;4801707;29;20222;-79
2021/01/04 03:03:48;;;;;;;24.43;13.77;;;;;;;;;;4798134;29;20231;-79
2021/01/04 03:06:19;;;;;;;24.17;12.87;;;;;;;;;;4806957;29;20214;-80
2021/01/04 03:08:47;;;;;;;25.80;13.73;;;;;;;;;;4809015;29;20217;-80
2021/01/04 03:11:16;;;;;;;25.70;12.87;;;;;;;;;;4803102;29;20245;-80
2021/01/04 03:13:54;;;;;;;26.50;14.13;;;;;;;;;;4818018;29;20228;-80
2021/01/04 03:16:27;;;;;;;24.17;13.40;;;;;;;;;;4807029;29;20208;-79
2021/01/04 03:18:59;;;;;;;24.07;13.43;;;;;;;;;;4814466;29;20261;-78
2021/01/04 03:21:28;;;;;;;26.00;14.10;;;;;;;;;;4822513;29;20211;-78
2021/01/04 03:23:57;;;;;;;25.53;14.00;;;;;;;;;;4819724;29;20239;-79
2021/01/04 03:26:27;;;;;;;24.67;14.07;;;;;;;;;;4799200;29;20213;-78
2021/01/04 03:28:55;;;;;;;24.17;13.07;;;;;;;;;;4798573;29;20730;-78
2021/01/04 03:31:24;;;;;;;31.57;14.73;;;;;;;;;;4820794;29;20215;-79
2021/01/04 03:33:52;;;;;;;24.40;13.77;;;;;;;;;;4821017;29;20236;-79
2021/01/04 03:36:21;;;;;;;26.43;13.83;;;;;;;;;;4818341;29;20234;-78
2021/01/04 03:38:49;;;;;;;26.53;13.73;;;;;;;;;;4821960;29;20231;-78
2021/01/04 03:41:18;;;;;;;25.57;13.67;;;;;;;;;;4806111;29;20212;-79
2021/01/04 03:43:46;;;;;;;22.37;12.73;;;;;;;;;;4819369;29;20239;-79
2021/01/04 03:46:15;;;;;;;23.43;13.33;;;;;;;;;;4818850;29;20220;-79
2021/01/04 03:48:43;;;;;;;25.93;13.87;;;;;;;;;;4821486;29;20215;-79
2021/01/04 03:51:14;;;;;;;28.17;15.27;;;;;;;;;;4805975;29;20219;-78
2021/01/04 03:53:42;;;;;;;26.70;14.10;;;;;;;;;;4819310;29;20722;-79
2021/01/04 03:56:14;;;;;;;27.33;14.23;;;;;;;;;;4820841;29;20216;-79
2021/01/04 03:58:43;;;;;;;28.50;13.90;;;;;;;;;;4821587;29;20522;-78
2021/01/04 04:01:11;;;;;;;23.47;13.10;;;;;;;;;;4814693;29;20399;-79
2021/01/04 04:03:40;;;;;;;22.00;13.13;;;;;;;;;;4816611;29;20243;-79
2021/01/04 04:06:10;;;;;;;20.87;12.10;;;;;;;;;;4823581;29;20255;-80
2021/01/04 04:08:39;;;;;;;23.07;13.73;;;;;;;;;;4818797;29;20211;-79
2021/01/04 04:11:07;;;;;;;26.07;13.80;;;;;;;;;;4811184;29;20220;-80
2021/01/04 04:13:35;;;;;;;23.30;13.00;;;;;;;;;;4807716;29;20622;-79
2021/01/04 04:16:04;;;;;;;27.67;13.70;;;;;;;;;;4814262;29;20216;-79
2021/01/04 04:18:31;;;;;;;21.90;13.33;;;;;;;;;;4832291;29;20604;-79
2021/01/04 04:21:00;;;;;;;28.63;14.70;;;;;;;;;;4807399;29;20217;-79
2021/01/04 04:23:29;;;;;;;28.43;14.57;;;;;;;;;;4818074;29;20239;-79
2021/01/04 04:25:57;;;;;;;26.40;13.97;;;;;;;;;;4795892;29;20214;-79
2021/01/04 04:28:25;;;;;;;33.20;15.73;;;;;;;;;;4803138;29;20214;-79
2021/01/04 04:30:54;;;;;;;27.67;14.57;;;;;;;;;;4820323;29;20219;-79
2021/01/04 04:33:22;;;;;;;28.40;15.03;;;;;;;;;;4803809;29;20232;-79
2021/01/04 04:35:51;;;;;;;30.50;15.20;;;;;;;;;;4804167;29;20586;-80
2021/01/04 04:38:20;;;;;;;31.77;16.73;;;;;;;;;;4803497;29;20572;-79
2021/01/04 04:40:50;;;;;;;29.77;17.00;;;;;;;;;;4804914;29;20225;-79
2021/01/04 04:43:28;;;;;;;31.10;15.37;;;;;;;;;;4819764;29;20235;-79
2021/01/04 04:45:56;;;;;;;29.77;15.50;;;;;;;;;;4832445;29;20219;-79
2021/01/04 04:48:50;;;;;;;33.13;16.27;;;;;;;;;;4819198;29;20234;-78
2021/01/04 04:51:31;;;;;;;30.17;15.67;;;;;;;;;;4803242;29;20717;-79
2021/01/04 04:54:41;;;;;;;32.23;16.03;;;;;;;;;;4819563;29;20262;-80
2021/01/04 04:57:36;;;;;;;30.00;15.27;;;;;;;;;;4809073;29;20210;-80
2021/01/04 05:00:17;;;;;;;28.83;16.00;;;;;;;;;;4780914;29;20609;-80
2021/01/04 05:02:56;;;;;;;31.73;16.03;;;;;;;;;;4821415;29;20227;-79
2021/01/04 05:05:31;;;;;;;31.03;16.23;;;;;;;;;;4798985;29;20238;-79
2021/01/04 05:08:06;;;;;;;32.20;16.07;;;;;;;;;;4812601;29;20271;-79
2021/01/04 05:10:37;;;;;;;29.47;15.73;;;;;;;;;;4820129;29;20218;-80
2021/01/04 05:13:18;;;;;;;27.03;15.00;;;;;;;;;;4831830;29;20512;-80
2021/01/04 05:15:53;;;;;;;24.17;13.37;;;;;;;;;;4817863;29;20226;-79
2021/01/04 05:18:49;;;;;;;27.63;15.03;;;;;;;;;;4817896;29;20288;-79
2021/01/04 05:21:47;;;;;;;28.33;14.37;;;;;;;;;;4823884;29;20230;-80
2021/01/04 05:24:46;;;;;;;30.60;13.60;;;;;;;;;;4809426;29;20216;-79
2021/01/04 05:27:52;;;;;;;26.70;14.20;;;;;;;;;;4791586;29;20573;-79
2021/01/04 05:30:30;;;;;;;26.90;13.93;;;;;;;;;;4804193;29;20204;-79
2021/01/04 05:33:07;;;;;;;26.87;13.77;;;;;;;;;;4820619;29;20263;-79
2021/01/04 05:35:35;;;;;;;24.47;14.07;;;;;;;;;;4802349;29;20221;-80
2021/01/04 05:38:10;;;;;;;27.20;14.23;;;;;;;;;;4816917;29;20226;-79
2021/01/04 05:41:11;;;;;;;25.77;13.07;;;;;;;;;;4817492;29;20227;-79
2021/01/04 05:43:45;;;;;;;27.43;14.33;;;;;;;;;;4818392;29;20245;-79
2021/01/04 05:46:18;;;;;;;28.70;15.10;;;;;;;;;;4831379;29;20295;-79
2021/01/04 05:48:55;;;;;;;27.90;15.00;;;;;;;;;;4829622;29;20207;-79
2021/01/04 05:51:27;;;;;;;27.70;13.97;;;;;;;;;;4825414;29;20668;-79
2021/01/04 05:53:56;;;;;;;24.70;13.63;;;;;;;;;;4794521;29;20244;-79
2021/01/04 05:56:26;;;;;;;27.10;14.60;;;;;;;;;;4801691;29;20219;-80
2021/01/04 05:59:07;;;;;;;26.00;14.97;;;;;;;;;;4817026;29;20231;-79
2021/01/04 06:01:37;;;;;;;30.60;14.57;;;;;;;;;;4797973;29;20219;-79
2021/01/04 06:04:10;;;;;;;25.13;12.90;;;;;;;;;;4811911;29;20239;-80
2021/01/04 06:06:58;;;;;;;22.50;13.10;;;;;;;;;;4806254;29;20219;-80
2021/01/04 06:09:28;;;;;;;26.70;14.23;;;;;;;;;;4809951;29;20215;-79
2021/01/04 06:11:58;;;;;;;25.07;13.70;;;;;;;;;;4821849;29;20220;-79
2021/01/04 06:14:27;;;;;;;24.07;13.80;;;;;;;;;;4802195;29;20211;-79
2021/01/04 06:17:00;;;;;;;24.43;13.47;;;;;;;;;;4814627;29;20709;-78
2021/01/04 06:19:30;;;;;;;24.93;13.90;;;;;;;;;;4809338;29;20231;-79
2021/01/04 06:21:59;;;;;;;28.10;15.10;;;;;;;;;;4794472;29;20215;-79
2021/01/04 06:24:31;;;;;;;24.03;14.37;;;;;;;;;;4823706;29;20224;-79
2021/01/04 06:27:00;;;;;;;24.60;14.07;;;;;;;;;;4826887;29;20219;-79
2021/01/04 06:29:31;;;;;;;25.03;13.43;;;;;;;;;;4804827;29;20488;-78
2021/01/04 06:32:00;;;;;;;27.37;14.30;;;;;;;;;;4811875;29;20207;-79
2021/01/04 06:34:30;;;;;;;32.63;14.80;;;;;;;;;;4793224;29;20545;-78
2021/01/04 06:37:03;;;;;;;26.10;13.43;;;;;;;;;;4792920;29;20675;-80
2021/01/04 06:39:32;;;;;;;25.93;14.33;;;;;;;;;;4803662;29;20236;-79
2021/01/04 06:42:13;;;;;;;25.33;13.93;;;;;;;;;;4829397;29;20918;-79
2021/01/04 06:44:44;;;;;;;24.27;13.10;;;;;;;;;;4787929;29;20208;-79
2021/01/04 06:47:25;;;;;;;25.80;15.20;;;;;;;;;;4812840;29;20211;-79
2021/01/04 06:49:59;;;;;;;24.87;14.27;;;;;;;;;;4802818;29;20224;-81
2021/01/04 06:53:01;;;;;;;22.80;13.47;;;;;;;;;;4828264;29;20238;-80
2021/01/04 06:55:58;;;;;;;25.73;13.63;;;;;;;;;;4818730;29;20227;-80
2021/01/04 06:59:09;;;;;;;24.50;13.33;;;;;;;;;;4988021;24;20238;-79
2021/01/04 07:02:03;;;;;;;26.60;13.53;;;;;;;;;;4790228;29;20685;-79
2021/01/04 07:05:04;;;;;;;22.40;12.83;;;;;;;;;;4800799;29;20220;-79
2021/01/04 07:07:56;;;;;;;23.37;12.33;;;;;;;;;;5068305;27;20565;-79
2021/01/04 07:10:46;;;;;;;25.73;13.80;;;;;;;;;;5060749;28;20210;-79
2021/01/04 07:13:41;;;;;;;25.20;14.50;;;;;;;;;;5037408;28;20230;-80
2021/01/04 07:16:33;;;;;;;26.33;14.43;;;;;;;;;;5051769;28;20202;-79
2021/01/04 07:19:05;;;;;;;26.77;14.20;;;;;;;;;;5047653;28;20207;-79
2021/01/04 07:21:41;;;;;;;26.10;14.17;;;;;;;;;;5060829;28;20218;-78
2021/01/04 07:24:24;;;;;;;25.93;14.53;;;;;;;;;;5065639;28;20226;-78
2021/01/04 07:27:02;;;;;;;26.77;14.80;;;;;;;;;;5063550;28;20605;-78
2021/01/04 07:29:55;;;;;;;26.37;14.63;;;;;;;;;;5059164;28;20198;-78
2021/01/04 07:32:25;;;;;;;27.73;14.63;;;;;;;;;;5058297;28;20592;-79
2021/01/04 07:34:55;;;;;;;25.93;13.73;;;;;;;;;;5060338;28;20214;-79
2021/01/04 07:37:52;;;;;;;24.93;13.73;;;;;;;;;;5062214;28;20589;-79
2021/01/04 07:41:12;;;;;;;22.03;13.73;;;;;;;;;;5050452;28;20200;-79
2021/01/04 07:44:10;;;;;;;26.40;14.37;;;;;;;;;;4989510;28;20233;-79
2021/01/04 07:47:20;;;;;;;26.27;14.50;;;;;;;;;;5076976;28;20715;-78
2021/01/04 07:50:21;;;;;;;25.80;14.30;;;;;;;;;;4976906;28;20219;-79
2021/01/04 07:53:21;;;;;;;23.37;13.87;;;;;;;;;;5056210;28;20223;-79
2021/01/04 07:56:27;;;;;;;27.03;14.43;;;;;;;;;;5051929;28;20199;-79
2021/01/04 07:59:12;;;;;;;27.40;14.43;;;;;;;;;;4999917;28;20202;-79
2021/01/04 08:02:15;;;;;;;26.10;14.03;;;;;;;;;;5055025;28;20203;-79
2021/01/04 08:05:07;;;;;;;27.40;13.87;;;;;;;;;;5063552;28;20584;-79
2021/01/04 08:08:11;;;;;;;23.13;13.93;;;;;;;;;;5061145;28;20223;-79
2021/01/04 08:10:51;;;;;;;25.47;13.67;;;;;;;;;;5038996;28;20214;-79
2021/01/04 08:13:45;;;;;;;25.00;13.37;;;;;;;;;;5032465;28;20315;-79
2021/01/04 08:16:16;;;;;;;28.33;15.23;;;;;;;;;;5053794;28;20187;-79
2021/01/04 08:18:44;;;;;;;25.43;13.90;;;;;;;;;;5077825;28;20206;-80
2021/01/04 08:21:21;;;;;;;24.90;14.37;;;;;;;;;;5057614;28;20191;-80
2021/01/04 08:23:54;;;;;;;25.03;14.23;;;;;;;;;;5069162;28;20219;-79
2021/01/04 08:26:42;;;;;;;22.80;13.63;;;;;;;;;;5072386;28;20230;-79
2021/01/04 08:29:13;;;;;;;24.23;13.73;;;;;;;;;;5067946;28;20208;-78
2021/01/04 08:31:51;;;;;;;25.77;14.63;;;;;;;;;;5037586;28;20204;-81
2021/01/04 08:34:21;;;;;;;24.10;13.00;;;;;;;;;;5029437;28;20203;-79
2021/01/04 08:36:55;;;;;;;27.50;15.03;;;;;;;;;;5045902;28;20590;-79
2021/01/04 08:39:34;;;;;;;27.57;14.30;;;;;;;;;;5040538;28;20208;-78
2021/01/04 08:42:12;;;;;;;23.17;13.33;;;;;;;;;;5021901;28;20204;-78
2021/01/04 08:44:52;;;;;;;24.57;14.57;;;;;;;;;;5043624;28;20218;-78
2021/01/04 08:47:29;;;;;;;26.90;15.30;;;;;;;;;;5053760;28;20211;-78
2021/01/04 08:50:08;;;;;;;24.90;14.63;;;;;;;;;;5026936;28;20578;-79
2021/01/04 08:52:43;;;;;;;28.67;15.03;;;;;;;;;;5046442;28;20234;-78
2021/01/04 08:55:22;;;;;;;25.60;12.77;;;;;;;;;;5026391;28;20218;-78
2021/01/04 08:57:50;;;;;;;24.13;13.77;;;;;;;;;;5026396;28;20207;-81
2021/01/04 09:00:22;;;;;;;23.60;14.73;;;;;;;;;;5050664;28;20231;-82
2021/01/04 09:02:50;;;;;;;26.63;14.33;;;;;;;;;;5040911;28;20220;-79
2021/01/04 09:05:30;;;;;;;23.03;13.33;;;;;;;;;;5059802;28;20268;-81
2021/01/04 09:07:58;;;;;;;24.80;14.27;;;;;;;;;;5061940;28;20223;-79
2021/01/04 09:10:37;;;;;;;24.03;13.63;;;;;;;;;;5070599;28;20222;-79
2021/01/04 09:13:11;;;;;;;26.13;13.27;;;;;;;;;;5034152;28;20228;-80
2021/01/04 09:15:41;;;;;;;25.33;14.27;;;;;;;;;;5031083;28;20215;-81
2021/01/04 09:18:25;;;;;;;27.70;13.80;;;;;;;;;;5050332;28;20203;-81
2021/01/04 09:20:55;;;;;;;25.40;13.00;;;;;;;;;;5056518;28;20203;-80
2021/01/04 09:23:32;;;;;;;25.70;13.83;;;;;;;;;;5064731;28;20226;-81
2021/01/04 09:26:17;;;;;;;24.27;13.13;;;;;;;;;;5050781;28;20184;-82
2021/01/04 09:28:49;;;;;;;27.27;13.60;;;;;;;;;;5069809;28;20195;-82
2021/01/04 09:31:18;;;;;;;22.97;13.70;;;;;;;;;;5063196;28;20195;-82
2021/01/04 09:33:49;;;;;;;25.73;13.50;;;;;;;;;;5064893;28;20220;-80
2021/01/04 09:36:20;;;;;;;25.97;13.37;;;;;;;;;;5040981;28;20210;-80
2021/01/04 09:38:49;;;;;;;25.23;13.87;;;;;;;;;;5031090;28;20200;-80
2021/01/04 09:41:25;;;;;;;22.47;12.10;;;;;;;;;;5038618;28;20215;-80
2021/01/04 09:44:03;;;;;;;23.13;13.10;;;;;;;;;;5018972;28;20220;-80
2021/01/04 09:46:39;;;;;;;23.30;13.63;;;;;;;;;;5024356;28;20227;-80
2021/01/04 09:49:10;;;;;;;25.03;13.10;;;;;;;;;;5022042;28;20666;-81
2021/01/04 09:51:42;;;;;;;21.43;12.40;;;;;;;;;;5028547;28;20208;-81
2021/01/04 09:54:14;;;;;;;20.23;11.87;;;;;;;;;;5042688;28;20204;-81
2021/01/04 09:56:42;;;;;;;25.17;12.87;;;;;;;;;;5035561;28;20207;-80
2021/01/04 09:59:12;;;;;;;20.13;11.00;;;;;;;;;;5030455;28;20203;-81
2021/01/04 10:01:45;;;;;;;16.67;9.20;;;;;;;;;;5048990;28;20208;-81
2021/01/04 10:04:14;;;;;;;17.23;9.23;;;;;;;;;;5046333;28;20208;-81
2021/01/04 10:06:42;;;;;;;14.17;9.23;;;;;;;;;;5047805;28;20234;-81
2021/01/04 10:09:14;;;;;;;13.93;8.27;;;;;;;;;;5048953;28;20192;-82
2021/01/04 10:11:46;;;;;;;15.20;7.93;;;;;;;;;;5055955;28;20581;-80
2021/01/04 10:14:18;;;;;;;14.27;8.00;;;;;;;;;;5043877;28;20196;-80
2021/01/04 10:16:52;;;;;;;12.90;7.80;;;;;;;;;;5023599;28;20200;-80
2021/01/04 10:19:23;;;;;;;15.07;7.47;;;;;;;;;;5041839;28;20202;-80
2021/01/04 10:21:58;;;;;;;12.87;6.97;;;;;;;;;;5036999;28;20201;-81
2021/01/04 10:24:29;;;;;;;12.23;7.37;;;;;;;;;;5042856;28;20195;-81
2021/01/04 10:27:01;;;;;;;12.83;7.47;;;;;;;;;;5042574;28;20224;-80
2021/01/04 10:29:32;;;;;;;11.93;7.20;;;;;;;;;;5047784;28;20203;-80
2021/01/04 10:32:10;;;;;;;12.30;7.73;;;;;;;;;;5036260;28;20570;-80
2021/01/04 10:34:43;;;;;;;13.60;7.83;;;;;;;;;;5032758;28;20572;-80
2021/01/04 10:37:40;;;;;;;11.77;7.03;;;;;;;;;;5026646;28;20216;-80
2021/01/04 10:40:11;;;;;;;14.97;8.70;;;;;;;;;;5015780;28;20212;-80
2021/01/04 10:42:41;;;;;;;14.70;8.00;;;;;;;;;;5030232;28;20231;-80
2021/01/04 10:45:13;;;;;;;14.03;7.27;;;;;;;;;;5046675;28;20593;-80
2021/01/04 10:47:53;;;;;;;14.23;7.73;;;;;;;;;;5046185;28;20720;-80
2021/01/04 10:50:32;;;;;;;11.60;6.80;;;;;;;;;;5021462;28;20200;-80
2021/01/04 10:53:02;;;;;;;15.07;7.23;;;;;;;;;;5039586;28;20219;-81
2021/01/04 10:55:34;;;;;;;13.43;7.17;;;;;;;;;;5040840;28;20216;-80
2021/01/04 10:58:17;;;;;;;14.27;8.00;;;;;;;;;;5040482;28;20391;-81
2021/01/04 11:00:52;;;;;;;13.73;7.07;;;;;;;;;;5047420;28;20688;-81
2021/01/04 11:03:24;;;;;;;13.03;7.70;;;;;;;;;;5026155;28;20238;-80
2021/01/04 11:05:53;;;;;;;13.37;7.40;;;;;;;;;;5033821;28;20381;-81
2021/01/04 11:08:32;;;;;;;11.57;7.27;;;;;;;;;;5025710;28;20224;-81
2021/01/04 11:11:07;;;;;;;15.03;7.70;;;;;;;;;;5026515;28;20602;-81
2021/01/04 11:13:37;;;;;;;14.90;8.27;;;;;;;;;;5021621;28;20223;-81
2021/01/04 11:16:11;;;;;;;14.77;7.63;;;;;;;;;;5036056;28;20211;-81
2021/01/04 11:18:51;;;;;;;14.30;8.00;;;;;;;;;;5038734;28;20211;-81
2021/01/04 11:21:34;;;;;;;15.03;8.57;;;;;;;;;;5018608;28;20203;-81
2021/01/04 11:24:05;;;;;;;15.47;7.93;;;;;;;;;;5047168;28;20223;-81
2021/01/04 11:26:35;;;;;;;14.57;8.23;;;;;;;;;;5021439;28;20207;-81
2021/01/04 11:29:07;;;;;;;17.53;7.77;;;;;;;;;;5045793;28;20219;-82
2021/01/04 11:31:37;;;;;;;14.37;7.80;;;;;;;;;;5029854;28;20203;-81
2021/01/04 11:34:09;;;;;;;15.93;8.33;;;;;;;;;;5036614;28;20224;-81
2021/01/04 11:36:40;;;;;;;15.63;8.63;;;;;;;;;;5041076;28;20231;-81
2021/01/04 11:39:11;;;;;;;15.77;7.43;;;;;;;;;;5025329;28;20674;-81
2021/01/04 11:41:43;;;;;;;18.23;8.90;;;;;;;;;;5027775;28;20219;-82
2021/01/04 11:44:14;;;;;;;16.13;8.60;;;;;;;;;;5025442;28;20203;-81
2021/01/04 11:46:44;;;;;;;14.47;8.30;;;;;;;;;;5036874;28;20203;-81
2021/01/04 11:49:17;;;;;;;15.10;7.83;;;;;;;;;;5045910;28;20224;-82
2021/01/04 11:51:51;;;;;;;15.97;9.40;;;;;;;;;;5025907;28;20211;-81
2021/01/04 11:54:21;;;;;;;16.53;8.23;;;;;;;;;;5027222;28;20196;-81
2021/01/04 11:56:51;;;;;;;14.33;7.73;;;;;;;;;;5048651;28;20222;-81
2021/01/04 11:59:21;;;;;;;14.07;8.13;;;;;;;;;;5047325;28;20204;-81
2021/01/04 12:01:56;;;;;;;14.57;8.03;;;;;;;;;;5028622;28;20199;-81
2021/01/04 12:04:28;;;;;;;18.00;9.37;;;;;;;;;;5036278;28;20207;-81
2021/01/04 12:06:58;;;;;;;17.27;7.87;;;;;;;;;;5028887;28;20617;-81
2021/01/04 12:09:28;;;;;;;15.60;8.10;;;;;;;;;;5044496;28;20226;-81
2021/01/04 12:11:58;;;;;;;13.87;8.30;;;;;;;;;;5032829;28;20577;-81
2021/01/04 12:14:29;;;;;;;16.37;8.77;;;;;;;;;;5047475;28;20199;-81
2021/01/04 12:17:03;;;;;;;13.80;7.43;;;;;;;;;;5046569;28;20678;-83
2021/01/04 12:19:34;;;;;;;15.90;8.17;;;;;;;;;;5031291;28;20654;-80
2021/01/04 12:22:05;;;;;;;15.60;8.40;;;;;;;;;;5020934;28;20701;-81
2021/01/04 12:24:36;;;;;;;16.17;8.00;;;;;;;;;;5028665;28;20203;-81
2021/01/04 12:27:10;;;;;;;16.77;8.10;;;;;;;;;;5019719;28;20203;-80
2021/01/04 12:29:44;;;;;;;13.83;8.20;;;;;;;;;;5030098;28;20196;-81
2021/01/04 12:32:16;;;;;;;15.87;8.17;;;;;;;;;;5026311;28;20234;-80
2021/01/04 12:34:48;;;;;;;14.37;7.40;;;;;;;;;;5041425;28;20200;-80
2021/01/04 12:37:19;;;;;;;15.33;8.53;;;;;;;;;;5022012;28;20214;-81
2021/01/04 12:39:50;;;;;;;15.83;8.00;;;;;;;;;;5047955;28;20208;-80
2021/01/04 12:42:20;;;;;;;15.63;8.60;;;;;;;;;;5023111;28;20250;-81
2021/01/04 12:44:51;;;;;;;17.10;8.47;;;;;;;;;;5028953;28;20203;-81
2021/01/04 12:47:24;;;;;;;13.60;7.33;;;;;;;;;;5041086;28;20700;-80
2021/01/04 12:49:55;;;;;;;16.87;8.67;;;;;;;;;;5026039;28;20207;-81
2021/01/04 12:52:27;;;;;;;13.70;7.70;;;;;;;;;;5023433;28;20745;-80
2021/01/04 12:54:58;;;;;;;13.90;7.97;;;;;;;;;;5035301;28;20215;-80
2021/01/04 12:57:30;;;;;;;15.03;8.37;;;;;;;;;;5041243;28;20200;-81
2021/01/04 13:00:00;;;;;;;14.40;8.63;;;;;;;;;;5024192;28;20191;-82
2021/01/04 13:02:31;;;;;;;15.80;8.83;;;;;;;;;;5044362;28;20223;-80
2021/01/04 13:05:03;;;;;;;15.97;8.30;;;;;;;;;;5026766;28;20200;-80
2021/01/04 13:07:35;;;;;;;15.57;7.60;;;;;;;;;;5050420;28;20417;-80
2021/01/04 13:10:08;;;;;;;14.53;7.83;;;;;;;;;;5025377;28;20608;-81
2021/01/04 13:12:39;;;;;;;16.17;7.93;;;;;;;;;;5039180;28;20227;-80
2021/01/04 13:15:11;;;;;;;13.13;8.60;;;;;;;;;;5021073;28;20693;-81
2021/01/04 13:17:42;;;;;;;14.03;7.83;;;;;;;;;;5029322;28;20689;-81
2021/01/04 13:20:14;;;;;;;12.90;7.43;;;;;;;;;;5041339;28;20209;-81
2021/01/04 13:22:45;;;;;;;16.30;7.73;;;;;;;;;;5030962;28;20595;-81
2021/01/04 13:25:17;;;;;;;13.63;8.07;;;;;;;;;;5050047;28;20199;-80
2021/01/04 13:27:47;;;;;;;16.40;8.30;;;;;;;;;;5023755;28;20231;-80
2021/01/04 13:30:20;;;;;;;14.10;8.00;;;;;;;;;;5033508;28;20403;-81
2021/01/04 13:32:50;;;;;;;19.37;9.37;;;;;;;;;;5035724;28;20601;-80
2021/01/04 13:35:23;;;;;;;14.70;7.60;;;;;;;;;;5053086;28;20199;-81
2021/01/04 13:37:54;;;;;;;18.80;8.50;;;;;;;;;;5032032;28;20215;-81
2021/01/04 13:40:24;;;;;;;17.90;8.17;;;;;;;;;;5047157;28;20207;-80
2021/01/04 13:43:00;;;;;;;17.63;9.23;;;;;;;;;;5041725;28;20532;-80
2021/01/04 13:45:31;;;;;;;15.67;8.23;;;;;;;;;;5023275;28;20200;-81
2021/01/04 13:48:01;;;;;;;14.13;8.83;;;;;;;;;;5016365;28;20231;-80
2021/01/04 13:50:32;;;;;;;15.47;7.83;;;;;;;;;;5037357;28;20227;-80
2021/01/04 13:53:03;;;;;;;16.37;8.10;;;;;;;;;;5024654;28;20594;-80
2021/01/04 13:55:32;;;;;;;15.73;8.00;;;;;;;;;;5022405;28;20208;-80
2021/01/04 13:58:02;;;;;;;15.40;7.80;;;;;;;;;;5045607;28;20688;-81
2021/01/04 14:00:32;;;;;;;16.00;8.93;;;;;;;;;;5022127;28;20196;-81
2021/01/04 14:03:03;;;;;;;17.73;8.87;;;;;;;;;;5027877;28;20230;-81
2021/01/04 14:05:35;;;;;;;15.90;9.90;;;;;;;;;;5025602;28;20204;-81
2021/01/04 14:08:07;;;;;;;15.20;7.97;;;;;;;;;;5040343;28;20200;-80
2021/01/04 14:10:39;;;;;;;18.90;9.47;;;;;;;;;;5045623;28;20202;-81
2021/01/04 14:13:13;;;;;;;17.63;8.90;;;;;;;;;;5044997;28;20701;-81
2021/01/04 14:15:44;;;;;;;19.90;9.20;;;;;;;;;;5020735;28;20219;-80
2021/01/04 14:18:16;;;;;;;16.30;8.17;;;;;;;;;;5042915;28;20207;-81
2021/01/04 14:20:48;;;;;;;15.00;8.80;;;;;;;;;;5051829;28;20186;-82
2021/01/04 14:23:20;;;;;;;16.00;8.53;;;;;;;;;;5044409;28;20218;-81
2021/01/04 14:25:49;;;;;;;18.27;9.77;;;;;;;;;;5032057;28;20208;-80
2021/01/04 14:28:21;;;;;;;15.23;8.33;;;;;;;;;;5053363;28;20223;-80
2021/01/04 14:30:52;;;;;;;15.80;8.63;;;;;;;;;;5034962;28;20207;-80
2021/01/04 14:33:24;;;;;;;19.90;9.47;;;;;;;;;;5031394;28;20571;-80
2021/01/04 14:35:57;;;;;;;16.80;8.73;;;;;;;;;;5042936;28;20778;-80
2021/01/04 14:38:29;;;;;;;16.07;8.80;;;;;;;;;;5062223;28;20204;-80
2021/01/04 14:41:01;;;;;;;16.03;8.90;;;;;;;;;;5026477;28;20210;-80
2021/01/04 14:43:33;;;;;;;17.03;9.00;;;;;;;;;;5029228;28;20739;-80
2021/01/04 14:46:05;;;;;;;20.40;9.10;;;;;;;;;;5026737;28;20208;-81
2021/01/04 14:48:36;;;;;;;17.40;8.60;;;;;;;;;;5043826;28;20227;-80
2021/01/04 14:51:09;;;;;;;19.90;9.40;;;;;;;;;;5036754;28;20685;-80
2021/01/04 14:53:40;;;;;;;17.80;8.70;;;;;;;;;;5027668;28;20239;-80
2021/01/04 14:56:11;;;;;;;15.97;8.40;;;;;;;;;;5045980;28;20207;-81
2021/01/04 14:58:42;;;;;;;18.07;8.70;;;;;;;;;;5037831;28;20210;-80
2021/01/04 15:01:14;;;;;;;17.50;9.00;;;;;;;;;;5036694;28;20195;-80
2021/01/04 15:03:46;;;;;;;16.33;8.13;;;;;;;;;;5041488;28;20223;-80
2021/01/04 15:06:19;;;;;;;15.97;8.67;;;;;;;;;;5040535;28;20218;-80
2021/01/04 15:08:49;;;;;;;15.43;8.77;;;;;;;;;;5031011;28;20215;-80
2021/01/04 15:11:20;;;;;;;18.93;9.37;;;;;;;;;;5043618;28;20212;-80